^^
TXWeather Station Historical Data
 
Daily Summary for September 21, 2021 Units:  English    Metric   Both
Daily Weekly Monthly Yearly Custom
  Current: High: Low: Average:
Temperature: 79.2 °F 81.3 °F 79.2 °F 80.2 °F
Dew Point: 75.6 °F 76.1 °F 75.6 °F 75.7 °F
Humidity: 89% 89% 84% 86%
Wind Speed: 3mph 8mph 2mph 4.9mph
Wind Gust: 4mph 9mph - -
WindSSE - - SSE
Pressure: 30.0 in 30.0 in 30.0 in -
Precipitation: 0.000 in      
Historical Graphs
 
 
Tabular Data for September 21, 2021
Time Temperature Dew Point Pressure Wind Wind Speed Wind Gust Humidity Rainfall Rate (Hourly) solar
00:04 81.3 °F 76.1 °F 30.0 in SSE 4 mph 5 mph 84% 0.000 in 0.00 W/m2
00:09 81.1 °F 75.9 °F 30.0 in SSE 6 mph 6 mph 84% 0.000 in 0.00 W/m2
00:14 81.1 °F 75.9 °F 30.0 in SSE 5 mph 6 mph 84% 0.000 in 0.00 W/m2
00:19 81.1 °F 75.9 °F 30.0 in South 6 mph 6 mph 84% 0.000 in 0.00 W/m2
00:24 81.0 °F 75.7 °F 30.0 in South 5 mph 9 mph 84% 0.000 in 0.00 W/m2
00:29 81.0 °F 76.1 °F 30.0 in SSE 5 mph 9 mph 85% 0.000 in 0.00 W/m2
00:34 80.8 °F 75.9 °F 30.0 in SSE 4 mph 5 mph 85% 0.000 in 0.00 W/m2
00:39 80.8 °F 75.9 °F 30.0 in SSE 7 mph 7 mph 85% 0.000 in 0.00 W/m2
00:44 80.6 °F 75.7 °F 30.0 in SSE 7 mph 7 mph 85% 0.000 in 0.00 W/m2
00:49 80.6 °F 75.7 °F 30.0 in SSE 6 mph 6 mph 85% 0.000 in 0.00 W/m2
00:54 80.6 °F 75.7 °F 30.0 in SSE 6 mph 6 mph 85% 0.000 in 0.00 W/m2
00:59 80.4 °F 75.6 °F 30.0 in SSE 6 mph 6 mph 85% 0.000 in 0.00 W/m2
01:04 80.4 °F 75.7 °F 30.0 in SSE 6 mph 7 mph 86% 0.000 in 0.00 W/m2
01:09 80.2 °F 75.7 °F 30.0 in SSE 8 mph 9 mph 86% 0.000 in 0.00 W/m2
01:14 80.2 °F 75.7 °F 30.0 in South 6 mph 9 mph 86% 0.000 in 0.00 W/m2
01:19 80.2 °F 75.7 °F 30.0 in SSE 5 mph 6 mph 86% 0.000 in 0.00 W/m2
01:24 80.2 °F 75.7 °F 30.0 in South 4 mph 4 mph 86% 0.000 in 0.00 W/m2
01:29 80.2 °F 75.7 °F 30.0 in SSE 5 mph 6 mph 86% 0.000 in 0.00 W/m2
01:34 80.1 °F 75.6 °F 30.0 in SSE 6 mph 6 mph 86% 0.000 in 0.00 W/m2
01:39 80.1 °F 75.6 °F 30.0 in SSE 5 mph 5 mph 86% 0.000 in 0.00 W/m2
01:44 80.1 °F 75.9 °F 30.0 in SSE 5 mph 5 mph 87% 0.000 in 0.00 W/m2
01:49 80.1 °F 75.9 °F 30.0 in SSE 5 mph 6 mph 87% 0.000 in 0.00 W/m2
01:54 79.9 °F 75.7 °F 30.0 in SSE 4 mph 5 mph 87% 0.000 in 0.00 W/m2
01:59 79.9 °F 75.7 °F 30.0 in SSE 6 mph 6 mph 87% 0.000 in 0.00 W/m2
02:04 79.9 °F 75.7 °F 30.0 in SSE 3 mph 5 mph 87% 0.000 in 0.00 W/m2
02:09 79.7 °F 75.6 °F 30.0 in SSE 3 mph 3 mph 87% 0.000 in 0.00 W/m2
02:14 79.5 °F 75.6 °F 30.0 in SSE 3 mph 4 mph 88% 0.000 in 0.00 W/m2
02:19 79.5 °F 75.6 °F 30.0 in South 5 mph 6 mph 88% 0.000 in 0.00 W/m2
02:24 79.5 °F 75.6 °F 30.0 in South 4 mph 4 mph 88% 0.000 in 0.00 W/m2
02:29 79.5 °F 75.6 °F 30.0 in South 5 mph 5 mph 88% 0.000 in 0.00 W/m2
02:34 79.5 °F 75.6 °F 30.0 in South 4 mph 4 mph 88% 0.000 in 0.00 W/m2
02:39 79.3 °F 75.6 °F 30.0 in SSE 4 mph 4 mph 88% 0.000 in 0.00 W/m2
02:44 79.3 °F 75.6 °F 30.0 in SSE 4 mph 4 mph 88% 0.000 in 0.00 W/m2
02:49 79.3 °F 75.6 °F 30.0 in SSE 2 mph 2 mph 88% 0.000 in 0.00 W/m2
02:54 79.2 °F 75.6 °F 30.0 in SSE 3 mph 4 mph 89% 0.000 in 0.00 W/m2
Villages of Bridgestone, Spring, TX USA
Compliments of Weather Underground - 4 mb